sensor_id;sensor_type;location;lat;lon;timestamp;P1;durP1;ratioP1;P2;durP2;ratioP2
12631;SDS011;6381;45.748;12.106;2024-01-06T00:00:55;5.33;;;3.70;;
12631;SDS011;6381;45.748;12.106;2024-01-06T00:03:25;4.80;;;3.60;;
12631;SDS011;6381;45.748;12.106;2024-01-06T00:05:56;5.30;;;3.63;;
12631;SDS011;6381;45.748;12.106;2024-01-06T00:08:29;5.23;;;4.00;;
12631;SDS011;6381;45.748;12.106;2024-01-06T00:11:00;5.73;;;4.80;;
12631;SDS011;6381;45.748;12.106;2024-01-06T00:13:31;6.50;;;4.60;;
12631;SDS011;6381;45.748;12.106;2024-01-06T00:16:00;4.97;;;4.00;;
12631;SDS011;6381;45.748;12.106;2024-01-06T00:18:30;5.40;;;4.23;;
12631;SDS011;6381;45.748;12.106;2024-01-06T00:21:00;4.27;;;3.40;;
12631;SDS011;6381;45.748;12.106;2024-01-06T00:23:32;4.10;;;3.70;;
12631;SDS011;6381;45.748;12.106;2024-01-06T00:26:03;3.67;;;3.30;;
12631;SDS011;6381;45.748;12.106;2024-01-06T00:28:33;3.57;;;3.03;;
12631;SDS011;6381;45.748;12.106;2024-01-06T00:31:04;3.80;;;3.10;;
12631;SDS011;6381;45.748;12.106;2024-01-06T00:33:35;2.77;;;2.47;;
12631;SDS011;6381;45.748;12.106;2024-01-06T00:36:06;2.40;;;2.10;;
12631;SDS011;6381;45.748;12.106;2024-01-06T00:38:38;4.83;;;2.40;;
12631;SDS011;6381;45.748;12.106;2024-01-06T00:41:08;2.50;;;2.30;;
12631;SDS011;6381;45.748;12.106;2024-01-06T00:43:38;2.73;;;1.90;;
12631;SDS011;6381;45.748;12.106;2024-01-06T00:46:09;2.37;;;2.17;;
12631;SDS011;6381;45.748;12.106;2024-01-06T00:48:41;2.50;;;2.20;;
12631;SDS011;6381;45.748;12.106;2024-01-06T00:51:14;2.40;;;2.20;;
12631;SDS011;6381;45.748;12.106;2024-01-06T00:53:50;2.13;;;2.00;;
12631;SDS011;6381;45.748;12.106;2024-01-06T00:56:20;2.83;;;2.30;;
12631;SDS011;6381;45.748;12.106;2024-01-06T00:58:55;2.47;;;2.27;;
12631;SDS011;6381;45.748;12.106;2024-01-06T01:01:26;3.00;;;2.70;;
12631;SDS011;6381;45.748;12.106;2024-01-06T01:03:57;2.87;;;2.40;;
12631;SDS011;6381;45.748;12.106;2024-01-06T01:06:27;3.13;;;2.20;;
12631;SDS011;6381;45.748;12.106;2024-01-06T01:08:59;2.40;;;1.93;;
12631;SDS011;6381;45.748;12.106;2024-01-06T01:11:29;2.30;;;2.10;;
12631;SDS011;6381;45.748;12.106;2024-01-06T01:13:59;2.10;;;1.90;;
12631;SDS011;6381;45.748;12.106;2024-01-06T01:16:30;1.70;;;1.60;;
12631;SDS011;6381;45.748;12.106;2024-01-06T01:19:01;2.73;;;1.90;;
12631;SDS011;6381;45.748;12.106;2024-01-06T01:21:31;2.13;;;1.93;;
12631;SDS011;6381;45.748;12.106;2024-01-06T01:24:02;2.53;;;2.30;;
12631;SDS011;6381;45.748;12.106;2024-01-06T01:26:33;2.40;;;2.20;;
12631;SDS011;6381;45.748;12.106;2024-01-06T01:29:04;2.90;;;2.20;;
12631;SDS011;6381;45.748;12.106;2024-01-06T01:31:34;2.40;;;2.00;;
12631;SDS011;6381;45.748;12.106;2024-01-06T01:34:04;2.60;;;2.03;;
12631;SDS011;6381;45.748;12.106;2024-01-06T01:36:35;3.40;;;2.27;;
12631;SDS011;6381;45.748;12.106;2024-01-06T01:39:07;2.17;;;1.90;;
12631;SDS011;6381;45.748;12.106;2024-01-06T01:41:37;2.20;;;2.00;;
12631;SDS011;6381;45.748;12.106;2024-01-06T01:44:09;2.53;;;1.97;;
12631;SDS011;6381;45.748;12.106;2024-01-06T01:46:38;2.80;;;2.10;;
12631;SDS011;6381;45.748;12.106;2024-01-06T01:49:09;1.90;;;1.70;;
12631;SDS011;6381;45.748;12.106;2024-01-06T01:51:40;2.60;;;2.00;;
12631;SDS011;6381;45.748;12.106;2024-01-06T01:54:14;2.40;;;2.20;;
12631;SDS011;6381;45.748;12.106;2024-01-06T01:56:45;3.07;;;2.00;;
12631;SDS011;6381;45.748;12.106;2024-01-06T01:59:17;2.50;;;2.20;;
12631;SDS011;6381;45.748;12.106;2024-01-06T02:01:49;4.20;;;2.90;;
12631;SDS011;6381;45.748;12.106;2024-01-06T02:04:21;4.00;;;2.80;;
12631;SDS011;6381;45.748;12.106;2024-01-06T02:06:52;2.50;;;2.30;;
12631;SDS011;6381;45.748;12.106;2024-01-06T02:09:25;2.30;;;2.03;;
12631;SDS011;6381;45.748;12.106;2024-01-06T02:11:57;3.23;;;1.77;;
12631;SDS011;6381;45.748;12.106;2024-01-06T02:14:28;1.83;;;1.60;;
12631;SDS011;6381;45.748;12.106;2024-01-06T02:17:00;2.00;;;1.80;;
12631;SDS011;6381;45.748;12.106;2024-01-06T02:19:29;2.13;;;1.60;;
12631;SDS011;6381;45.748;12.106;2024-01-06T02:22:01;1.80;;;1.60;;
12631;SDS011;6381;45.748;12.106;2024-01-06T02:24:31;2.90;;;1.90;;
12631;SDS011;6381;45.748;12.106;2024-01-06T02:27:01;1.90;;;1.63;;
12631;SDS011;6381;45.748;12.106;2024-01-06T02:29:32;2.20;;;1.80;;
12631;SDS011;6381;45.748;12.106;2024-01-06T02:32:03;3.07;;;1.90;;
12631;SDS011;6381;45.748;12.106;2024-01-06T02:34:34;2.30;;;2.10;;
12631;SDS011;6381;45.748;12.106;2024-01-06T02:37:07;2.13;;;1.63;;
12631;SDS011;6381;45.748;12.106;2024-01-06T02:39:38;1.97;;;1.60;;
12631;SDS011;6381;45.748;12.106;2024-01-06T02:42:08;2.20;;;1.60;;
12631;SDS011;6381;45.748;12.106;2024-01-06T02:44:38;1.90;;;1.70;;
12631;SDS011;6381;45.748;12.106;2024-01-06T02:47:09;2.13;;;1.93;;
12631;SDS011;6381;45.748;12.106;2024-01-06T02:49:38;2.90;;;2.03;;
12631;SDS011;6381;45.748;12.106;2024-01-06T02:52:10;2.53;;;2.10;;
12631;SDS011;6381;45.748;12.106;2024-01-06T02:54:41;2.63;;;2.00;;
12631;SDS011;6381;45.748;12.106;2024-01-06T02:57:11;2.30;;;1.93;;
12631;SDS011;6381;45.748;12.106;2024-01-06T02:59:43;2.03;;;1.80;;
12631;SDS011;6381;45.748;12.106;2024-01-06T03:02:14;2.23;;;1.80;;
12631;SDS011;6381;45.748;12.106;2024-01-06T03:04:45;1.90;;;1.67;;
12631;SDS011;6381;45.748;12.106;2024-01-06T03:07:17;2.40;;;1.63;;
12631;SDS011;6381;45.748;12.106;2024-01-06T03:09:47;2.10;;;1.57;;
12631;SDS011;6381;45.748;12.106;2024-01-06T03:12:18;1.73;;;1.63;;
12631;SDS011;6381;45.748;12.106;2024-01-06T03:14:48;2.07;;;1.70;;
12631;SDS011;6381;45.748;12.106;2024-01-06T03:17:19;1.97;;;1.77;;
12631;SDS011;6381;45.748;12.106;2024-01-06T03:19:49;2.33;;;1.70;;
12631;SDS011;6381;45.748;12.106;2024-01-06T03:22:21;1.67;;;1.57;;
12631;SDS011;6381;45.748;12.106;2024-01-06T03:24:52;2.20;;;2.00;;
12631;SDS011;6381;45.748;12.106;2024-01-06T03:27:23;1.70;;;1.60;;
12631;SDS011;6381;45.748;12.106;2024-01-06T03:29:53;1.70;;;1.60;;
12631;SDS011;6381;45.748;12.106;2024-01-06T03:32:24;2.63;;;1.60;;
12631;SDS011;6381;45.748;12.106;2024-01-06T03:34:56;2.53;;;1.40;;
12631;SDS011;6381;45.748;12.106;2024-01-06T03:37:28;1.70;;;1.60;;
12631;SDS011;6381;45.748;12.106;2024-01-06T03:39:57;2.20;;;1.60;;
12631;SDS011;6381;45.748;12.106;2024-01-06T03:42:27;2.27;;;1.77;;
12631;SDS011;6381;45.748;12.106;2024-01-06T03:44:57;1.80;;;1.70;;
12631;SDS011;6381;45.748;12.106;2024-01-06T03:47:29;2.00;;;1.70;;
12631;SDS011;6381;45.748;12.106;2024-01-06T03:49:59;2.43;;;1.57;;
12631;SDS011;6381;45.748;12.106;2024-01-06T03:52:30;1.53;;;1.40;;
12631;SDS011;6381;45.748;12.106;2024-01-06T03:55:01;1.90;;;1.80;;
12631;SDS011;6381;45.748;12.106;2024-01-06T03:57:30;3.13;;;1.73;;
12631;SDS011;6381;45.748;12.106;2024-01-06T04:00:01;1.70;;;1.60;;
12631;SDS011;6381;45.748;12.106;2024-01-06T04:02:31;2.10;;;1.70;;
12631;SDS011;6381;45.748;12.106;2024-01-06T04:05:01;1.70;;;1.50;;
12631;SDS011;6381;45.748;12.106;2024-01-06T04:07:33;2.20;;;1.60;;
12631;SDS011;6381;45.748;12.106;2024-01-06T04:10:04;2.07;;;1.87;;
12631;SDS011;6381;45.748;12.106;2024-01-06T04:12:37;2.40;;;1.97;;
12631;SDS011;6381;45.748;12.106;2024-01-06T04:15:07;1.97;;;1.63;;
12631;SDS011;6381;45.748;12.106;2024-01-06T04:17:37;2.17;;;1.70;;
12631;SDS011;6381;45.748;12.106;2024-01-06T04:20:08;2.13;;;1.87;;
12631;SDS011;6381;45.748;12.106;2024-01-06T04:22:41;2.23;;;2.03;;
12631;SDS011;6381;45.748;12.106;2024-01-06T04:25:12;1.70;;;1.60;;
12631;SDS011;6381;45.748;12.106;2024-01-06T04:27:42;2.63;;;1.80;;
12631;SDS011;6381;45.748;12.106;2024-01-06T04:30:14;2.20;;;1.97;;
12631;SDS011;6381;45.748;12.106;2024-01-06T04:32:46;2.00;;;1.80;;
12631;SDS011;6381;45.748;12.106;2024-01-06T04:35:17;2.67;;;2.10;;
12631;SDS011;6381;45.748;12.106;2024-01-06T04:37:49;1.90;;;1.70;;
12631;SDS011;6381;45.748;12.106;2024-01-06T04:40:19;1.90;;;1.70;;
12631;SDS011;6381;45.748;12.106;2024-01-06T04:42:50;1.87;;;1.60;;
12631;SDS011;6381;45.748;12.106;2024-01-06T04:45:22;1.60;;;1.50;;
12631;SDS011;6381;45.748;12.106;2024-01-06T04:47:54;2.23;;;1.70;;
12631;SDS011;6381;45.748;12.106;2024-01-06T04:50:25;2.77;;;1.60;;
12631;SDS011;6381;45.748;12.106;2024-01-06T04:52:58;1.90;;;1.50;;
12631;SDS011;6381;45.748;12.106;2024-01-06T04:55:28;1.70;;;1.50;;
12631;SDS011;6381;45.748;12.106;2024-01-06T04:57:58;1.60;;;1.50;;
12631;SDS011;6381;45.748;12.106;2024-01-06T05:00:29;1.77;;;1.67;;
12631;SDS011;6381;45.748;12.106;2024-01-06T05:02:58;3.50;;;2.30;;
12631;SDS011;6381;45.748;12.106;2024-01-06T05:05:29;1.60;;;1.50;;
12631;SDS011;6381;45.748;12.106;2024-01-06T05:08:02;2.00;;;1.70;;
12631;SDS011;6381;45.748;12.106;2024-01-06T05:10:32;2.93;;;1.53;;
12631;SDS011;6381;45.748;12.106;2024-01-06T05:13:02;1.53;;;1.43;;
12631;SDS011;6381;45.748;12.106;2024-01-06T05:15:32;1.70;;;1.60;;
12631;SDS011;6381;45.748;12.106;2024-01-06T05:18:03;1.87;;;1.67;;
12631;SDS011;6381;45.748;12.106;2024-01-06T05:20:33;1.63;;;1.50;;
12631;SDS011;6381;45.748;12.106;2024-01-06T05:23:06;1.57;;;1.30;;
12631;SDS011;6381;45.748;12.106;2024-01-06T05:25:36;1.60;;;1.50;;
12631;SDS011;6381;45.748;12.106;2024-01-06T05:28:07;1.83;;;1.60;;
12631;SDS011;6381;45.748;12.106;2024-01-06T05:30:38;2.13;;;1.70;;
12631;SDS011;6381;45.748;12.106;2024-01-06T05:33:10;1.70;;;1.60;;
12631;SDS011;6381;45.748;12.106;2024-01-06T05:35:41;4.30;;;1.90;;
12631;SDS011;6381;45.748;12.106;2024-01-06T05:38:13;1.83;;;1.60;;
12631;SDS011;6381;45.748;12.106;2024-01-06T05:40:44;1.90;;;1.70;;
12631;SDS011;6381;45.748;12.106;2024-01-06T05:43:16;1.77;;;1.60;;
12631;SDS011;6381;45.748;12.106;2024-01-06T05:45:46;3.47;;;1.47;;
12631;SDS011;6381;45.748;12.106;2024-01-06T05:48:16;1.60;;;1.50;;
12631;SDS011;6381;45.748;12.106;2024-01-06T05:50:46;2.93;;;1.87;;
12631;SDS011;6381;45.748;12.106;2024-01-06T05:53:18;2.10;;;1.90;;
12631;SDS011;6381;45.748;12.106;2024-01-06T05:55:49;1.80;;;1.70;;
12631;SDS011;6381;45.748;12.106;2024-01-06T05:58:21;1.93;;;1.73;;
12631;SDS011;6381;45.748;12.106;2024-01-06T06:00:51;1.90;;;1.80;;
12631;SDS011;6381;45.748;12.106;2024-01-06T06:03:22;2.03;;;1.83;;
12631;SDS011;6381;45.748;12.106;2024-01-06T06:05:53;2.00;;;1.90;;
12631;SDS011;6381;45.748;12.106;2024-01-06T06:08:24;1.70;;;1.60;;
12631;SDS011;6381;45.748;12.106;2024-01-06T06:10:55;2.23;;;2.03;;
12631;SDS011;6381;45.748;12.106;2024-01-06T06:13:29;2.30;;;2.00;;
12631;SDS011;6381;45.748;12.106;2024-01-06T06:15:59;2.43;;;2.10;;
12631;SDS011;6381;45.748;12.106;2024-01-06T06:18:28;2.40;;;1.90;;
12631;SDS011;6381;45.748;12.106;2024-01-06T06:20:59;2.50;;;1.83;;
12631;SDS011;6381;45.748;12.106;2024-01-06T06:23:33;1.93;;;1.73;;
12631;SDS011;6381;45.748;12.106;2024-01-06T06:26:04;2.90;;;2.43;;
12631;SDS011;6381;45.748;12.106;2024-01-06T06:28:35;2.03;;;1.83;;
12631;SDS011;6381;45.748;12.106;2024-01-06T06:31:06;2.20;;;2.00;;
12631;SDS011;6381;45.748;12.106;2024-01-06T06:33:36;2.93;;;2.30;;
12631;SDS011;6381;45.748;12.106;2024-01-06T06:36:07;2.33;;;2.10;;
12631;SDS011;6381;45.748;12.106;2024-01-06T06:38:38;2.20;;;2.00;;
12631;SDS011;6381;45.748;12.106;2024-01-06T06:41:08;2.03;;;1.80;;
12631;SDS011;6381;45.748;12.106;2024-01-06T06:43:38;1.97;;;1.70;;
12631;SDS011;6381;45.748;12.106;2024-01-06T06:46:08;1.90;;;1.70;;
12631;SDS011;6381;45.748;12.106;2024-01-06T06:48:39;2.77;;;2.07;;
12631;SDS011;6381;45.748;12.106;2024-01-06T06:51:09;2.50;;;1.90;;
12631;SDS011;6381;45.748;12.106;2024-01-06T06:53:41;1.90;;;1.60;;
12631;SDS011;6381;45.748;12.106;2024-01-06T06:56:14;1.80;;;1.70;;
12631;SDS011;6381;45.748;12.106;2024-01-06T06:58:44;1.50;;;1.40;;
12631;SDS011;6381;45.748;12.106;2024-01-06T07:01:14;1.90;;;1.80;;
12631;SDS011;6381;45.748;12.106;2024-01-06T07:03:45;1.80;;;1.70;;
12631;SDS011;6381;45.748;12.106;2024-01-06T07:06:15;1.80;;;1.70;;
12631;SDS011;6381;45.748;12.106;2024-01-06T07:08:46;1.90;;;1.80;;
12631;SDS011;6381;45.748;12.106;2024-01-06T07:11:17;2.23;;;2.00;;
12631;SDS011;6381;45.748;12.106;2024-01-06T07:13:47;2.03;;;1.87;;
12631;SDS011;6381;45.748;12.106;2024-01-06T07:16:18;2.47;;;2.00;;
12631;SDS011;6381;45.748;12.106;2024-01-06T07:18:48;3.00;;;1.80;;
12631;SDS011;6381;45.748;12.106;2024-01-06T07:21:19;3.17;;;1.80;;
12631;SDS011;6381;45.748;12.106;2024-01-06T07:23:52;2.63;;;1.90;;
12631;SDS011;6381;45.748;12.106;2024-01-06T07:26:25;2.17;;;1.97;;
12631;SDS011;6381;45.748;12.106;2024-01-06T07:28:55;2.20;;;1.80;;
12631;SDS011;6381;45.748;12.106;2024-01-06T07:31:25;2.13;;;1.93;;
12631;SDS011;6381;45.748;12.106;2024-01-06T07:33:56;3.40;;;2.83;;
12631;SDS011;6381;45.748;12.106;2024-01-06T07:36:27;2.83;;;2.50;;
12631;SDS011;6381;45.748;12.106;2024-01-06T07:38:59;2.40;;;2.20;;
12631;SDS011;6381;45.748;12.106;2024-01-06T07:41:32;2.77;;;2.20;;
12631;SDS011;6381;45.748;12.106;2024-01-06T07:44:03;2.63;;;2.30;;
12631;SDS011;6381;45.748;12.106;2024-01-06T07:46:34;2.77;;;2.47;;
12631;SDS011;6381;45.748;12.106;2024-01-06T07:49:04;2.50;;;2.30;;
12631;SDS011;6381;45.748;12.106;2024-01-06T07:51:35;2.40;;;2.20;;
12631;SDS011;6381;45.748;12.106;2024-01-06T07:54:07;3.13;;;2.93;;
12631;SDS011;6381;45.748;12.106;2024-01-06T07:56:40;4.97;;;4.40;;
12631;SDS011;6381;45.748;12.106;2024-01-06T07:59:11;6.23;;;4.73;;
12631;SDS011;6381;45.748;12.106;2024-01-06T08:01:41;6.97;;;5.20;;
12631;SDS011;6381;45.748;12.106;2024-01-06T08:04:11;4.80;;;4.33;;
12631;SDS011;6381;45.748;12.106;2024-01-06T08:06:41;3.40;;;3.10;;
12631;SDS011;6381;45.748;12.106;2024-01-06T08:09:12;2.93;;;2.63;;
12631;SDS011;6381;45.748;12.106;2024-01-06T08:11:42;2.30;;;2.10;;
12631;SDS011;6381;45.748;12.106;2024-01-06T08:14:15;2.77;;;2.30;;
12631;SDS011;6381;45.748;12.106;2024-01-06T08:16:46;2.97;;;2.37;;
12631;SDS011;6381;45.748;12.106;2024-01-06T08:19:16;3.33;;;2.40;;
12631;SDS011;6381;45.748;12.106;2024-01-06T08:21:47;3.63;;;2.60;;
12631;SDS011;6381;45.748;12.106;2024-01-06T08:24:19;5.47;;;2.47;;
12631;SDS011;6381;45.748;12.106;2024-01-06T08:26:48;2.83;;;2.40;;
12631;SDS011;6381;45.748;12.106;2024-01-06T08:29:19;2.70;;;2.50;;
12631;SDS011;6381;45.748;12.106;2024-01-06T08:31:49;2.70;;;2.50;;
12631;SDS011;6381;45.748;12.106;2024-01-06T08:34:22;3.17;;;2.50;;
12631;SDS011;6381;45.748;12.106;2024-01-06T08:36:55;2.50;;;2.30;;
12631;SDS011;6381;45.748;12.106;2024-01-06T08:39:27;2.70;;;2.50;;
12631;SDS011;6381;45.748;12.106;2024-01-06T08:41:58;2.90;;;2.67;;
12631;SDS011;6381;45.748;12.106;2024-01-06T08:44:28;3.10;;;2.63;;
12631;SDS011;6381;45.748;12.106;2024-01-06T08:46:59;3.53;;;2.63;;
12631;SDS011;6381;45.748;12.106;2024-01-06T08:49:29;2.60;;;2.23;;
12631;SDS011;6381;45.748;12.106;2024-01-06T08:51:59;2.80;;;2.40;;
12631;SDS011;6381;45.748;12.106;2024-01-06T08:54:31;3.20;;;2.90;;
12631;SDS011;6381;45.748;12.106;2024-01-06T08:57:03;3.00;;;2.70;;
12631;SDS011;6381;45.748;12.106;2024-01-06T08:59:33;4.27;;;2.70;;
12631;SDS011;6381;45.748;12.106;2024-01-06T09:02:04;3.00;;;2.70;;
12631;SDS011;6381;45.748;12.106;2024-01-06T09:04:35;5.43;;;4.40;;
12631;SDS011;6381;45.748;12.106;2024-01-06T09:07:06;6.73;;;4.90;;
12631;SDS011;6381;45.748;12.106;2024-01-06T09:09:37;5.90;;;4.20;;
12631;SDS011;6381;45.748;12.106;2024-01-06T09:12:08;5.27;;;4.53;;
12631;SDS011;6381;45.748;12.106;2024-01-06T09:14:39;6.23;;;4.10;;
12631;SDS011;6381;45.748;12.106;2024-01-06T09:17:09;4.70;;;3.97;;
12631;SDS011;6381;45.748;12.106;2024-01-06T09:19:41;4.37;;;3.97;;
12631;SDS011;6381;45.748;12.106;2024-01-06T09:22:11;4.07;;;3.77;;
12631;SDS011;6381;45.748;12.106;2024-01-06T09:24:44;2.90;;;2.70;;
12631;SDS011;6381;45.748;12.106;2024-01-06T09:27:14;2.77;;;2.57;;
12631;SDS011;6381;45.748;12.106;2024-01-06T09:29:45;3.07;;;2.77;;
12631;SDS011;6381;45.748;12.106;2024-01-06T09:32:16;3.57;;;2.53;;
12631;SDS011;6381;45.748;12.106;2024-01-06T09:34:46;2.57;;;2.30;;
12631;SDS011;6381;45.748;12.106;2024-01-06T09:37:16;3.00;;;2.60;;
12631;SDS011;6381;45.748;12.106;2024-01-06T09:39:48;2.80;;;2.40;;
12631;SDS011;6381;45.748;12.106;2024-01-06T09:42:18;2.40;;;2.20;;
12631;SDS011;6381;45.748;12.106;2024-01-06T09:44:49;3.37;;;2.80;;
12631;SDS011;6381;45.748;12.106;2024-01-06T09:47:20;2.80;;;2.60;;
12631;SDS011;6381;45.748;12.106;2024-01-06T09:49:53;3.87;;;3.00;;
12631;SDS011;6381;45.748;12.106;2024-01-06T09:52:26;3.17;;;2.87;;
12631;SDS011;6381;45.748;12.106;2024-01-06T09:55:00;3.40;;;3.10;;
12631;SDS011;6381;45.748;12.106;2024-01-06T09:57:37;4.77;;;3.17;;
12631;SDS011;6381;45.748;12.106;2024-01-06T10:00:07;6.50;;;5.80;;
12631;SDS011;6381;45.748;12.106;2024-01-06T10:02:39;9.03;;;8.13;;
12631;SDS011;6381;45.748;12.106;2024-01-06T10:05:10;13.90;;;11.40;;
12631;SDS011;6381;45.748;12.106;2024-01-06T10:07:42;6.90;;;6.20;;
12631;SDS011;6381;45.748;12.106;2024-01-06T10:10:14;23.97;;;15.77;;
12631;SDS011;6381;45.748;12.106;2024-01-06T10:12:47;14.40;;;11.47;;
12631;SDS011;6381;45.748;12.106;2024-01-06T10:15:21;10.60;;;8.93;;
12631;SDS011;6381;45.748;12.106;2024-01-06T10:17:53;8.10;;;6.53;;
12631;SDS011;6381;45.748;12.106;2024-01-06T10:20:24;7.53;;;6.83;;
12631;SDS011;6381;45.748;12.106;2024-01-06T10:22:55;7.73;;;6.93;;
12631;SDS011;6381;45.748;12.106;2024-01-06T10:25:35;9.17;;;8.20;;
12631;SDS011;6381;45.748;12.106;2024-01-06T10:28:11;8.87;;;7.90;;
12631;SDS011;6381;45.748;12.106;2024-01-06T10:30:42;7.80;;;7.00;;
12631;SDS011;6381;45.748;12.106;2024-01-06T10:33:13;4.87;;;4.40;;
12631;SDS011;6381;45.748;12.106;2024-01-06T10:35:44;6.27;;;5.07;;
12631;SDS011;6381;45.748;12.106;2024-01-06T10:38:15;8.00;;;6.50;;
12631;SDS011;6381;45.748;12.106;2024-01-06T10:40:57;13.07;;;10.40;;
12631;SDS011;6381;45.748;12.106;2024-01-06T10:43:35;8.63;;;7.73;;
12631;SDS011;6381;45.748;12.106;2024-01-06T10:46:08;4.73;;;4.33;;
12631;SDS011;6381;45.748;12.106;2024-01-06T10:48:39;4.50;;;4.10;;
12631;SDS011;6381;45.748;12.106;2024-01-06T10:51:13;4.10;;;3.50;;
12631;SDS011;6381;45.748;12.106;2024-01-06T10:53:44;4.00;;;3.60;;
12631;SDS011;6381;45.748;12.106;2024-01-06T10:56:15;5.27;;;3.83;;
12631;SDS011;6381;45.748;12.106;2024-01-06T10:58:48;4.57;;;4.17;;
12631;SDS011;6381;45.748;12.106;2024-01-06T11:01:21;4.43;;;4.03;;
12631;SDS011;6381;45.748;12.106;2024-01-06T11:03:56;4.20;;;3.80;;
12631;SDS011;6381;45.748;12.106;2024-01-06T11:06:26;4.70;;;3.90;;
12631;SDS011;6381;45.748;12.106;2024-01-06T11:09:04;3.87;;;3.57;;
12631;SDS011;6381;45.748;12.106;2024-01-06T11:11:45;4.33;;;3.93;;
12631;SDS011;6381;45.748;12.106;2024-01-06T11:14:19;4.40;;;4.00;;
12631;SDS011;6381;45.748;12.106;2024-01-06T11:16:52;4.00;;;3.60;;
12631;SDS011;6381;45.748;12.106;2024-01-06T11:22:20;4.03;;;2.97;;
12631;SDS011;6381;45.748;12.106;2024-01-06T11:24:53;3.57;;;3.10;;
12631;SDS011;6381;45.748;12.106;2024-01-06T11:27:27;4.20;;;3.50;;
12631;SDS011;6381;45.748;12.106;2024-01-06T11:29:58;4.23;;;3.70;;
12631;SDS011;6381;45.748;12.106;2024-01-06T11:32:34;3.97;;;3.57;;
12631;SDS011;6381;45.748;12.106;2024-01-06T11:35:07;5.13;;;4.20;;
12631;SDS011;6381;45.748;12.106;2024-01-06T11:37:50;4.40;;;3.73;;
12631;SDS011;6381;45.748;12.106;2024-01-06T11:40:25;6.63;;;4.10;;
12631;SDS011;6381;45.748;12.106;2024-01-06T11:43:03;5.53;;;3.50;;
12631;SDS011;6381;45.748;12.106;2024-01-06T11:45:36;5.93;;;3.77;;
12631;SDS011;6381;45.748;12.106;2024-01-06T11:48:08;3.77;;;3.43;;
12631;SDS011;6381;45.748;12.106;2024-01-06T11:50:40;7.73;;;4.03;;
12631;SDS011;6381;45.748;12.106;2024-01-06T11:53:12;3.13;;;2.83;;
12631;SDS011;6381;45.748;12.106;2024-01-06T11:55:43;3.77;;;3.37;;
12631;SDS011;6381;45.748;12.106;2024-01-06T11:58:17;4.33;;;3.93;;
12631;SDS011;6381;45.748;12.106;2024-01-06T12:00:54;3.83;;;3.50;;
12631;SDS011;6381;45.748;12.106;2024-01-06T12:03:25;3.83;;;3.47;;
12631;SDS011;6381;45.748;12.106;2024-01-06T12:05:59;4.23;;;3.83;;
12631;SDS011;6381;45.748;12.106;2024-01-06T12:08:32;5.80;;;5.10;;
12631;SDS011;6381;45.748;12.106;2024-01-06T12:11:02;4.77;;;4.37;;
12631;SDS011;6381;45.748;12.106;2024-01-06T12:13:36;6.43;;;5.33;;
12631;SDS011;6381;45.748;12.106;2024-01-06T12:16:07;5.07;;;4.50;;
12631;SDS011;6381;45.748;12.106;2024-01-06T12:18:37;6.43;;;4.30;;
12631;SDS011;6381;45.748;12.106;2024-01-06T12:21:08;8.37;;;6.67;;
12631;SDS011;6381;45.748;12.106;2024-01-06T12:23:39;22.83;;;15.87;;
12631;SDS011;6381;45.748;12.106;2024-01-06T12:26:10;18.33;;;14.67;;
12631;SDS011;6381;45.748;12.106;2024-01-06T12:28:43;11.40;;;10.23;;
12631;SDS011;6381;45.748;12.106;2024-01-06T12:31:16;13.43;;;11.30;;
12631;SDS011;6381;45.748;12.106;2024-01-06T12:33:49;20.53;;;14.90;;
12631;SDS011;6381;45.748;12.106;2024-01-06T12:36:21;16.43;;;14.07;;
12631;SDS011;6381;45.748;12.106;2024-01-06T12:38:53;12.87;;;11.47;;
12631;SDS011;6381;45.748;12.106;2024-01-06T12:41:26;15.83;;;13.87;;
12631;SDS011;6381;45.748;12.106;2024-01-06T12:44:09;6.90;;;6.30;;
12631;SDS011;6381;45.748;12.106;2024-01-06T12:46:40;6.20;;;5.60;;
12631;SDS011;6381;45.748;12.106;2024-01-06T12:49:14;7.70;;;6.87;;
12631;SDS011;6381;45.748;12.106;2024-01-06T12:51:52;8.03;;;7.00;;
12631;SDS011;6381;45.748;12.106;2024-01-06T12:54:23;11.20;;;10.20;;
12631;SDS011;6381;45.748;12.106;2024-01-06T12:57:02;7.17;;;6.57;;
12631;SDS011;6381;45.748;12.106;2024-01-06T12:59:56;5.30;;;4.80;;
12631;SDS011;6381;45.748;12.106;2024-01-06T13:02:27;4.07;;;3.77;;
12631;SDS011;6381;45.748;12.106;2024-01-06T13:04:57;4.03;;;3.40;;
12631;SDS011;6381;45.748;12.106;2024-01-06T13:07:27;4.03;;;3.60;;
12631;SDS011;6381;45.748;12.106;2024-01-06T13:09:57;3.63;;;3.13;;
12631;SDS011;6381;45.748;12.106;2024-01-06T13:12:28;3.70;;;3.40;;
12631;SDS011;6381;45.748;12.106;2024-01-06T13:15:01;3.90;;;3.60;;
12631;SDS011;6381;45.748;12.106;2024-01-06T13:17:35;3.83;;;3.47;;
12631;SDS011;6381;45.748;12.106;2024-01-06T13:20:09;3.83;;;3.43;;
12631;SDS011;6381;45.748;12.106;2024-01-06T13:22:59;4.00;;;3.70;;
12631;SDS011;6381;45.748;12.106;2024-01-06T13:25:37;4.20;;;3.80;;
12631;SDS011;6381;45.748;12.106;2024-01-06T13:28:09;4.03;;;3.60;;
12631;SDS011;6381;45.748;12.106;2024-01-06T13:30:52;3.87;;;3.47;;
12631;SDS011;6381;45.748;12.106;2024-01-06T13:33:29;5.17;;;4.67;;
12631;SDS011;6381;45.748;12.106;2024-01-06T13:35:58;3.20;;;2.80;;
12631;SDS011;6381;45.748;12.106;2024-01-06T13:38:29;3.40;;;3.10;;
12631;SDS011;6381;45.748;12.106;2024-01-06T13:41:04;3.37;;;3.03;;
12631;SDS011;6381;45.748;12.106;2024-01-06T13:43:44;4.50;;;4.10;;
12631;SDS011;6381;45.748;12.106;2024-01-06T13:46:16;4.27;;;3.97;;
12631;SDS011;6381;45.748;12.106;2024-01-06T13:49:01;5.00;;;4.50;;
12631;SDS011;6381;45.748;12.106;2024-01-06T13:51:38;3.80;;;3.50;;
12631;SDS011;6381;45.748;12.106;2024-01-06T13:54:15;3.37;;;2.83;;
12631;SDS011;6381;45.748;12.106;2024-01-06T13:56:53;3.20;;;2.90;;
12631;SDS011;6381;45.748;12.106;2024-01-06T13:59:23;3.87;;;3.37;;
12631;SDS011;6381;45.748;12.106;2024-01-06T14:01:58;3.17;;;2.87;;
12631;SDS011;6381;45.748;12.106;2024-01-06T14:04:31;4.23;;;3.07;;
12631;SDS011;6381;45.748;12.106;2024-01-06T14:07:04;3.43;;;3.13;;
12631;SDS011;6381;45.748;12.106;2024-01-06T14:09:41;3.57;;;3.27;;
12631;SDS011;6381;45.748;12.106;2024-01-06T14:12:14;3.80;;;3.33;;
12631;SDS011;6381;45.748;12.106;2024-01-06T14:14:44;3.57;;;3.20;;
12631;SDS011;6381;45.748;12.106;2024-01-06T14:17:18;3.30;;;3.00;;
12631;SDS011;6381;45.748;12.106;2024-01-06T14:19:58;3.20;;;2.90;;
12631;SDS011;6381;45.748;12.106;2024-01-06T14:22:31;5.40;;;4.90;;
12631;SDS011;6381;45.748;12.106;2024-01-06T14:25:03;4.40;;;4.00;;
12631;SDS011;6381;45.748;12.106;2024-01-06T14:27:38;5.33;;;3.70;;
12631;SDS011;6381;45.748;12.106;2024-01-06T14:30:17;3.40;;;3.10;;
12631;SDS011;6381;45.748;12.106;2024-01-06T14:32:53;3.63;;;3.20;;
12631;SDS011;6381;45.748;12.106;2024-01-06T14:35:27;4.00;;;3.60;;
12631;SDS011;6381;45.748;12.106;2024-01-06T14:38:03;3.70;;;3.23;;
12631;SDS011;6381;45.748;12.106;2024-01-06T14:40:34;4.77;;;3.53;;
12631;SDS011;6381;45.748;12.106;2024-01-06T14:43:04;3.50;;;3.20;;
12631;SDS011;6381;45.748;12.106;2024-01-06T14:45:36;10.13;;;7.47;;
12631;SDS011;6381;45.748;12.106;2024-01-06T14:48:12;3.77;;;3.30;;
12631;SDS011;6381;45.748;12.106;2024-01-06T14:50:46;3.77;;;3.23;;
12631;SDS011;6381;45.748;12.106;2024-01-06T14:53:19;4.30;;;3.23;;
12631;SDS011;6381;45.748;12.106;2024-01-06T14:55:51;3.83;;;3.43;;
12631;SDS011;6381;45.748;12.106;2024-01-06T14:58:23;4.27;;;3.53;;
12631;SDS011;6381;45.748;12.106;2024-01-06T15:00:53;6.17;;;4.87;;
12631;SDS011;6381;45.748;12.106;2024-01-06T15:03:25;5.17;;;4.20;;
12631;SDS011;6381;45.748;12.106;2024-01-06T15:05:55;5.53;;;4.77;;
12631;SDS011;6381;45.748;12.106;2024-01-06T15:08:25;5.10;;;4.60;;
12631;SDS011;6381;45.748;12.106;2024-01-06T15:10:56;12.47;;;9.73;;
12631;SDS011;6381;45.748;12.106;2024-01-06T15:13:26;23.67;;;14.60;;
12631;SDS011;6381;45.748;12.106;2024-01-06T15:16:01;17.63;;;12.97;;